Acme, North Carolina
Current Conditions -  °F | °C
As of 4:53 AM on Monday 26 Jan 2015 (Local Time) from KILM Reporting Station
Haze Haze  
Wind Chill:   Ceiling: Unl
Heat Index:   Visibility: 5mi
Dew Point:   Wind: 0mph
Humidity: 96%   Direction: NA
Pressure: 29.7"   Gusts: NA
Location:  34.3494°N, 78.2681°W
Report Text: KILM 260953Z AUTO 00000KT 5SM BR CLR 04/03 A2970 RMK AO2 SLP058 T00390033
Loading
Personal Weather Stations






























Interactive Weather Map New forecast layout! Learn more

10-Day Weather Forecast

Advertisements
Track Severe Weather on mobile